createdAt,value
2017-12-22T00:00:10.402Z,7.68
2017-12-22T00:01:20.573Z,7.67
2017-12-22T00:02:30.388Z,7.63
2017-12-22T00:03:40.186Z,7.63
2017-12-22T00:04:49.988Z,7.64
2017-12-22T00:05:59.529Z,7.67
2017-12-22T00:07:09.386Z,7.64
2017-12-22T00:08:19.437Z,7.63
2017-12-22T00:09:29.286Z,7.67
2017-12-22T00:10:39.099Z,7.64
2017-12-22T00:11:49.169Z,7.64
2017-12-22T00:12:59.233Z,7.61
2017-12-22T00:14:09.298Z,7.64
2017-12-22T00:15:19.359Z,7.63
2017-12-22T00:16:29.162Z,7.73
2017-12-22T00:17:39.234Z,7.74
2017-12-22T00:18:49.338Z,7.85
2017-12-22T00:19:59.143Z,7.85
2017-12-22T00:21:09.218Z,7.99
2017-12-22T00:22:18.753Z,7.93
2017-12-22T00:23:28.540Z,7.95
2017-12-22T00:24:38.651Z,8.06
2017-12-22T00:25:48.444Z,8.11
2017-12-22T00:26:57.716Z,8.1
2017-12-22T00:28:07.573Z,8.14
2017-12-22T00:29:17.646Z,8.11
2017-12-22T00:30:27.699Z,8.07
2017-12-22T00:31:37.762Z,8.09
2017-12-22T00:32:47.805Z,8.11
2017-12-22T00:33:57.850Z,7.99
2017-12-22T00:35:07.914Z,8.06
2017-12-22T00:36:17.734Z,8.04
2017-12-22T00:37:27.777Z,7.95
2017-12-22T00:38:37.842Z,7.95
2017-12-22T00:39:47.375Z,8.04
2017-12-22T00:40:57.173Z,7.95
2017-12-22T00:42:07.303Z,8.03
2017-12-22T00:43:16.829Z,8.03
2017-12-22T00:44:26.652Z,8.04
2017-12-22T00:45:36.731Z,7.99
2017-12-22T00:46:46.533Z,8.04
2017-12-22T00:47:56.337Z,7.98
2017-12-22T00:49:06.399Z,7.96
2017-12-22T00:50:16.442Z,8.04
2017-12-22T00:51:26.276Z,8.13
2017-12-22T00:52:36.069Z,8.11
2017-12-22T00:53:45.870Z,8.21
2017-12-22T00:54:55.668Z,8.19
2017-12-22T00:56:05.470Z,8.14
2017-12-22T00:57:15.517Z,8.14
2017-12-22T00:58:25.309Z,8.17
2017-12-22T00:59:35.420Z,8.19
2017-12-22T01:00:45.223Z,8.17
2017-12-22T01:01:55.286Z,8.19
2017-12-22T01:03:05.339Z,8.14
2017-12-22T01:04:15.143Z,8.24
2017-12-22T01:05:24.978Z,8.26
2017-12-22T01:06:34.505Z,8.13
2017-12-22T01:07:44.557Z,8.24
2017-12-22T01:08:54.625Z,8.34
2017-12-22T01:10:04.154Z,8.24
2017-12-22T01:11:13.979Z,8.26
2017-12-22T01:12:24.039Z,8.31
2017-12-22T01:13:34.096Z,8.44
2017-12-22T01:14:43.883Z,8.4
2017-12-22T01:15:53.414Z,8.39
2017-12-22T01:17:03.482Z,8.4
2017-12-22T01:18:13.273Z,8.47
2017-12-22T01:19:22.791Z,8.44
2017-12-22T01:20:32.049Z,8.42
2017-12-22T01:21:42.109Z,8.49
2017-12-22T01:22:52.216Z,8.4
2017-12-22T01:24:01.751Z,8.42
2017-12-22T01:25:11.808Z,8.36
2017-12-22T01:26:21.870Z,8.5
2017-12-22T01:27:31.671Z,8.39
2017-12-22T01:28:41.503Z,8.43
2017-12-22T01:29:51.560Z,8.31
2017-12-22T01:31:01.088Z,8.29
2017-12-22T01:32:10.875Z,8.29
2017-12-22T01:33:20.937Z,8.22
2017-12-22T01:34:30.732Z,8.14
2017-12-22T01:35:40.785Z,8.24
2017-12-22T01:36:50.588Z,8.11
2017-12-22T01:38:00.128Z,8.06
2017-12-22T01:39:09.671Z,7.96
2017-12-22T01:40:19.550Z,7.98
2017-12-22T01:41:29.348Z,7.95
2017-12-22T01:42:39.409Z,7.93
2017-12-22T01:43:49.530Z,8.03
2017-12-22T01:44:59.319Z,8.03
2017-12-22T01:46:09.359Z,8.06
2017-12-22T01:47:19.417Z,7.98
2017-12-22T01:48:29.467Z,8.06
2017-12-22T01:49:39.016Z,8.04
2017-12-22T01:50:48.565Z,7.96
2017-12-22T01:51:58.350Z,8.06
2017-12-22T01:53:08.401Z,7.95
2017-12-22T01:54:18.460Z,8.01
2017-12-22T01:55:28.514Z,8.01
2017-12-22T01:56:38.299Z,8.04
2017-12-22T01:57:48.418Z,7.99
2017-12-22T01:58:58.479Z,7.99
2017-12-22T02:00:08.532Z,8.1
2017-12-22T02:01:18.599Z,7.99
2017-12-22T02:02:28.645Z,8.06
2017-12-22T02:03:38.788Z,8.14
2017-12-22T02:04:48.578Z,8.1
2017-12-22T02:05:58.362Z,8.17
2017-12-22T02:07:08.416Z,8.22
2017-12-22T02:08:18.523Z,8.19
2017-12-22T02:09:28.375Z,8.24
2017-12-22T02:10:38.432Z,8.17
2017-12-22T02:11:48.495Z,8.17
2017-12-22T02:12:59.020Z,8.26
2017-12-22T02:14:09.066Z,8.32
2017-12-22T02:15:19.123Z,8.34
2017-12-22T02:16:29.198Z,8.44
2017-12-22T02:17:39.247Z,8.43
2017-12-22T02:18:49.094Z,8.47
2017-12-22T02:19:58.875Z,8.4
2017-12-22T02:21:08.676Z,8.49
2017-12-22T02:22:18.462Z,8.47
2017-12-22T02:23:28.516Z,8.5
2017-12-22T02:24:38.576Z,8.58
2017-12-22T02:25:48.634Z,8.57
2017-12-22T02:26:58.427Z,8.6
2017-12-22T02:28:07.954Z,8.57
2017-12-22T02:29:17.755Z,8.69
2017-12-22T02:30:27.274Z,8.65
2017-12-22T02:31:37.318Z,8.71
2017-12-22T02:32:47.115Z,8.69
2017-12-22T02:33:56.936Z,8.82
2017-12-22T02:35:07.012Z,8.83
2017-12-22T02:36:16.795Z,8.85
2017-12-22T02:37:26.860Z,8.86
2017-12-22T02:38:36.973Z,8.83
2017-12-22T02:39:47.035Z,8.74
2017-12-22T02:40:56.822Z,8.85
2017-12-22T02:42:06.620Z,8.87
2017-12-22T02:43:16.152Z,9
2017-12-22T02:44:26.219Z,8.87
2017-12-22T02:45:36.289Z,9.01
2017-12-22T02:46:46.415Z,8.97
2017-12-22T02:47:55.934Z,8.97
2017-12-22T02:49:05.725Z,8.98
2017-12-22T02:50:16.176Z,9.05
2017-12-22T02:51:26.228Z,8.94
2017-12-22T02:52:36.040Z,9.04
2017-12-22T02:53:45.565Z,9.01
2017-12-22T02:54:55.349Z,9.03
2017-12-22T02:56:05.459Z,8.98
2017-12-22T02:57:15.244Z,9.05
2017-12-22T02:58:25.039Z,9.11
2017-12-22T02:59:35.138Z,9.01
2017-12-22T03:00:45.183Z,9.09
2017-12-22T03:01:55.037Z,9.04
2017-12-22T03:34:07.114Z,6.6
2017-12-22T03:35:17.163Z,6.52
2017-12-22T03:36:27.207Z,6.55
2017-12-22T03:37:37.006Z,6.6
2017-12-22T03:38:47.045Z,6.65
2017-12-22T03:39:58.132Z,6.8
2017-12-22T03:41:08.613Z,6.83
2017-12-22T03:42:18.405Z,6.97
2017-12-22T03:43:28.451Z,7.08
2017-12-22T03:44:38.246Z,7.23
2017-12-22T03:45:48.309Z,7.34
2017-12-22T03:46:58.099Z,7.47
2017-12-22T03:48:08.158Z,7.64
2017-12-22T03:49:17.982Z,7.8
2017-12-22T03:50:27.786Z,7.91
2017-12-22T03:51:37.889Z,8.06
2017-12-22T03:52:47.680Z,8.1
2017-12-22T03:53:57.797Z,8.21
2017-12-22T03:55:07.858Z,8.29
2017-12-22T03:56:17.919Z,8.4
2017-12-22T03:57:27.976Z,8.5
2017-12-22T03:58:38.022Z,8.6
2017-12-22T03:59:48.090Z,8.61
2017-12-22T04:00:58.167Z,8.57
2017-12-22T04:02:07.946Z,8.68
2017-12-22T04:03:18.006Z,8.69
2017-12-22T04:04:28.047Z,8.83
2017-12-22T04:05:38.109Z,8.87
2017-12-22T04:06:48.186Z,8.94
2017-12-22T04:07:58.232Z,8.9
2017-12-22T04:09:07.764Z,8.9
2017-12-22T04:10:17.557Z,8.94
2017-12-22T04:11:27.370Z,8.95
2017-12-22T04:12:37.450Z,9.01
2017-12-22T04:13:47.513Z,9.08
2017-12-22T04:14:57.564Z,9.05
2017-12-22T04:16:07.630Z,9.14
2017-12-22T04:17:17.440Z,9.14
2017-12-22T04:18:27.495Z,9.09
2017-12-22T04:19:37.542Z,9.11
2017-12-22T04:20:47.376Z,9.21
2017-12-22T04:21:57.425Z,9.19
2017-12-22T04:23:06.947Z,9.19
2017-12-22T04:24:17.014Z,9.29
2017-12-22T04:25:26.795Z,9.32
2017-12-22T04:26:36.601Z,9.32
2017-12-22T04:27:46.398Z,9.27
2017-12-22T04:28:56.497Z,9.32
2017-12-22T04:30:06.311Z,9.3
2017-12-22T04:31:16.618Z,9.39
2017-12-22T04:32:26.493Z,9.37
2017-12-22T04:33:36.552Z,9.47
2017-12-22T04:34:46.613Z,9.52
2017-12-22T04:35:56.664Z,9.5
2017-12-22T04:37:06.713Z,9.56
2017-12-22T04:38:16.774Z,9.53
2017-12-22T04:39:26.838Z,9.56
2017-12-22T04:40:36.632Z,9.5
2017-12-22T04:41:46.676Z,9.52
2017-12-22T04:42:56.728Z,9.53
2017-12-22T04:44:06.824Z,9.48
2017-12-22T04:45:16.898Z,9.5
2017-12-22T04:46:26.690Z,9.47
2017-12-22T04:47:36.735Z,9.47
2017-12-22T04:48:46.797Z,9.44
2017-12-22T04:49:56.851Z,9.44
2017-12-22T04:51:06.904Z,9.38
2017-12-22T04:52:16.697Z,9.34
2017-12-22T04:53:26.476Z,9.37
2017-12-22T04:54:36.292Z,9.41
2017-12-22T04:55:46.399Z,9.21
2017-12-22T04:56:56.208Z,9.27
2017-12-22T04:58:06.000Z,9.34
2017-12-22T04:59:16.069Z,9.35
2017-12-22T05:00:25.603Z,9.34
2017-12-22T05:01:35.435Z,9.38
2017-12-22T05:02:45.499Z,9.38
2017-12-22T05:03:55.317Z,9.37
2017-12-22T05:05:05.115Z,9.34
2017-12-22T05:06:15.176Z,9.27
2017-12-22T05:07:25.290Z,9.24
2017-12-22T05:08:35.356Z,9.34
2017-12-22T05:09:45.148Z,9.32
2017-12-22T05:10:55.217Z,9.3
2017-12-22T05:12:05.265Z,9.41
2017-12-22T05:13:15.113Z,9.38
2017-12-22T05:14:25.266Z,9.37
2017-12-22T05:15:35.327Z,9.34
2017-12-22T05:16:45.113Z,9.35
2017-12-22T05:17:55.168Z,9.38
2017-12-22T05:19:05.027Z,9.27
2017-12-22T05:20:15.087Z,9.38
2017-12-22T05:21:25.146Z,9.3
2017-12-22T05:22:35.220Z,9.38
2017-12-22T05:23:44.743Z,9.37
2017-12-22T05:24:54.852Z,9.34
2017-12-22T05:26:04.379Z,9.34
2017-12-22T05:27:14.170Z,9.44
2017-12-22T05:28:24.225Z,9.39
2017-12-22T05:29:34.283Z,9.39
2017-12-22T05:30:44.390Z,9.32
2017-12-22T05:31:54.186Z,9.42
2017-12-22T05:33:03.987Z,9.41
2017-12-22T05:34:13.793Z,9.32
2017-12-22T05:35:23.854Z,9.37
2017-12-22T05:36:33.648Z,9.39
2017-12-22T05:37:43.451Z,9.35
2017-12-22T05:38:52.985Z,9.39
2017-12-22T05:40:03.022Z,9.27
2017-12-22T05:41:13.065Z,9.35
2017-12-22T05:42:23.136Z,9.42
2017-12-22T05:43:33.186Z,9.37
2017-12-22T05:44:43.251Z,9.41
2017-12-22T05:45:52.777Z,9.42
2017-12-22T05:47:02.578Z,9.41
2017-12-22T05:48:11.859Z,9.45
2017-12-22T05:49:21.674Z,9.44
2017-12-22T05:50:31.467Z,9.44
2017-12-22T05:51:41.259Z,9.42
2017-12-22T05:52:51.316Z,9.48
2017-12-22T05:54:01.424Z,9.53
2017-12-22T05:55:11.214Z,9.56
2017-12-22T05:56:21.013Z,9.47
2017-12-22T05:57:30.852Z,9.56
2017-12-22T05:58:40.902Z,9.59
2017-12-22T05:59:50.481Z,9.56
2017-12-22T06:01:00.274Z,9.59
2017-12-22T06:02:10.062Z,9.55
2017-12-22T06:03:20.101Z,9.53
2017-12-22T06:04:30.148Z,9.63
2017-12-22T06:05:39.953Z,9.62
2017-12-22T06:06:49.992Z,9.66
2017-12-22T06:08:00.052Z,9.53
2017-12-22T06:09:10.121Z,9.63
2017-12-22T06:10:20.178Z,9.64
2017-12-22T06:11:30.289Z,9.71
2017-12-22T06:12:40.091Z,9.64
2017-12-22T06:13:50.160Z,9.72
2017-12-22T06:14:59.934Z,9.75
2017-12-22T06:16:09.973Z,9.71
2017-12-22T06:17:20.024Z,9.72
2017-12-22T06:18:29.814Z,9.78
2017-12-22T06:19:39.619Z,9.74
2017-12-22T06:20:49.667Z,9.81
2017-12-22T06:21:59.472Z,9.85
2017-12-22T06:23:09.525Z,9.85
2017-12-22T06:24:19.301Z,9.85
2017-12-22T06:25:29.100Z,9.9
2017-12-22T06:26:38.888Z,9.82
2017-12-22T06:27:48.419Z,9.82
2017-12-22T06:28:57.976Z,9.82
2017-12-22T06:30:07.512Z,9.84
2017-12-22T06:31:17.301Z,9.92
2017-12-22T06:32:27.124Z,9.92
2017-12-22T06:33:37.173Z,9.99
2017-12-22T06:34:47.099Z,9.96
2017-12-22T06:35:56.906Z,9.95
2017-12-22T06:37:06.963Z,10.08
2017-12-22T06:38:16.766Z,10.02
2017-12-22T06:39:26.579Z,10.14
2017-12-22T06:40:36.417Z,10.14
2017-12-22T06:41:46.455Z,10.1
2017-12-22T06:42:56.536Z,10.18
2017-12-22T06:44:06.078Z,10.25
2017-12-22T06:45:15.611Z,10.25
2017-12-22T06:46:25.708Z,10.23
2017-12-22T06:47:35.757Z,10.29
2017-12-22T06:48:45.566Z,10.31
2017-12-22T06:49:55.633Z,10.29
2017-12-22T06:51:05.430Z,10.31
2017-12-22T06:52:15.532Z,10.2
2017-12-22T06:53:25.338Z,10.33
2017-12-22T06:54:35.397Z,10.31
2017-12-22T06:55:45.265Z,10.28
2017-12-22T06:56:55.317Z,10.18
2017-12-22T06:58:05.159Z,10.25
2017-12-22T06:59:15.216Z,10.21
2017-12-22T07:00:25.275Z,10.21
2017-12-22T07:01:35.078Z,10.25
2017-12-22T07:02:44.886Z,10.17
2017-12-22T07:03:54.493Z,10.25
2017-12-22T07:05:04.555Z,10.26
2017-12-22T07:06:14.344Z,10.29
2017-12-22T07:07:24.399Z,10.28
2017-12-22T07:08:34.451Z,10.41
2017-12-22T07:09:44.526Z,10.39
2017-12-22T07:10:54.588Z,10.36
2017-12-22T07:12:04.373Z,10.42
2017-12-22T07:13:14.452Z,10.39
2017-12-22T07:14:24.508Z,10.35
2017-12-22T07:15:34.547Z,10.39
2017-12-22T07:16:44.597Z,10.32
2017-12-22T07:17:54.671Z,10.38
2017-12-22T07:19:04.726Z,10.44
2017-12-22T07:20:14.801Z,10.44
2017-12-22T07:21:24.889Z,10.39
2017-12-22T07:22:34.429Z,10.39
2017-12-22T07:23:44.511Z,10.38
2017-12-22T07:24:54.308Z,10.39
2017-12-22T07:26:03.843Z,10.38
2017-12-22T07:27:13.951Z,10.36
2017-12-22T07:28:23.751Z,10.31
2017-12-22T07:29:33.537Z,10.32
2017-12-22T07:30:43.588Z,10.36
2017-12-22T07:31:53.128Z,10.46
2017-12-22T07:33:03.332Z,10.47
2017-12-22T07:34:12.605Z,10.51
2017-12-22T07:35:22.410Z,10.42
2017-12-22T07:36:32.462Z,10.52
2017-12-22T07:37:42.243Z,10.42
2017-12-22T07:38:52.040Z,10.58
2017-12-22T07:40:01.847Z,10.49
2017-12-22T07:41:11.975Z,10.54
2017-12-22T07:42:22.048Z,10.52
2017-12-22T07:43:32.088Z,10.55
2017-12-22T07:44:42.190Z,10.51
2017-12-22T07:45:51.965Z,10.63
2017-12-22T07:47:01.755Z,10.7
2017-12-22T07:48:11.825Z,10.63
2017-12-22T07:49:21.615Z,10.75
2017-12-22T07:50:31.694Z,10.76
2017-12-22T07:51:41.771Z,10.79
2017-12-22T07:52:51.574Z,10.7
2017-12-22T07:54:01.617Z,10.76
2017-12-22T07:55:11.430Z,10.85
2017-12-22T07:56:21.530Z,10.77
2017-12-22T07:57:31.600Z,10.84
2017-12-22T07:58:41.642Z,10.8
2017-12-22T07:59:51.454Z,10.87
2017-12-22T08:01:01.509Z,10.8
2017-12-22T08:02:11.578Z,10.8
2017-12-22T08:03:21.636Z,10.9
2017-12-22T08:04:31.775Z,10.85
2017-12-22T08:05:41.821Z,10.88
2017-12-22T08:06:51.618Z,10.87
2017-12-22T08:08:01.676Z,10.92
2017-12-22T08:09:11.734Z,11.02
2017-12-22T08:10:21.533Z,10.98
2017-12-22T08:11:31.581Z,10.95
2017-12-22T08:12:41.694Z,11.06
2017-12-22T08:13:51.858Z,11.03
2017-12-22T08:15:01.653Z,11.06
2017-12-22T08:16:11.192Z,11.12
2017-12-22T08:17:21.002Z,11.23
2017-12-22T08:18:30.800Z,11.24
2017-12-22T08:19:40.977Z,11.18
2017-12-22T08:20:50.766Z,11.3
2017-12-22T08:22:00.821Z,11.28
2017-12-22T08:23:10.880Z,11.24
2017-12-22T08:24:20.421Z,11.41
2017-12-22T08:25:30.726Z,11.38
2017-12-22T08:26:40.823Z,11.35
2017-12-22T08:27:50.874Z,11.42
2017-12-22T08:29:00.655Z,11.42
2017-12-22T08:30:10.699Z,11.39
2017-12-22T08:31:20.810Z,11.46
2017-12-22T08:32:30.972Z,11.46
2017-12-22T08:33:40.776Z,11.46
2017-12-22T08:34:50.843Z,11.52
2017-12-22T08:36:00.910Z,11.57
2017-12-22T08:37:10.979Z,11.59
2017-12-22T08:38:21.051Z,11.67
2017-12-22T08:39:31.123Z,11.67
2017-12-22T08:40:41.179Z,11.79
2017-12-22T08:41:50.457Z,11.75
2017-12-22T08:43:00.008Z,11.84
2017-12-22T08:44:09.801Z,11.82
2017-12-22T08:45:21.071Z,11.73
2017-12-22T08:46:31.135Z,11.85
2017-12-22T08:47:41.207Z,11.89
2017-12-22T08:48:50.527Z,11.95
2017-12-22T08:50:00.308Z,11.98
2017-12-22T08:51:09.852Z,12.03
2017-12-22T08:52:19.926Z,12.08
2017-12-22T08:53:29.762Z,12.13
2017-12-22T08:54:39.606Z,12.13
2017-12-22T08:55:49.405Z,12.23
2017-12-22T08:57:00.048Z,12.16
2017-12-22T08:58:09.623Z,12.16
2017-12-22T08:59:20.462Z,12.15
2017-12-22T09:00:30.875Z,12.11
2017-12-22T09:01:41.784Z,12.1
2017-12-22T09:02:54.170Z,12.18
2017-12-22T09:04:07.213Z,12
2017-12-22T09:05:20.166Z,11.89
2017-12-22T09:06:33.775Z,11.89
2017-12-22T09:07:46.127Z,11.97
2017-12-22T09:08:57.197Z,12.03
2017-12-22T09:10:09.316Z,12.01
2017-12-22T09:11:21.400Z,12.03
2017-12-22T09:12:32.795Z,12.18
2017-12-22T09:13:44.052Z,12.16
2017-12-22T09:14:55.880Z,12.19
2017-12-22T09:16:06.525Z,12.22
2017-12-22T09:17:16.516Z,12.22
2017-12-22T09:18:27.261Z,12.23
2017-12-22T09:19:37.551Z,12.23
2017-12-22T09:20:47.616Z,12.25
2017-12-22T09:21:57.687Z,12.2
2017-12-22T09:23:07.496Z,12.23
2017-12-22T09:24:17.542Z,12.25
2017-12-22T09:25:27.598Z,12.36
2017-12-22T09:26:37.399Z,12.33
2017-12-22T09:27:47.465Z,12.44
2017-12-22T09:28:57.387Z,12.51
2017-12-22T09:30:06.974Z,12.52
2017-12-22T09:31:16.865Z,12.52
2017-12-22T09:32:28.168Z,12.59
2017-12-22T09:33:38.893Z,12.58
2017-12-22T09:34:48.701Z,12.58
2017-12-22T09:35:58.826Z,12.63
2017-12-22T09:37:08.894Z,12.62
2017-12-22T09:38:18.701Z,12.59
2017-12-22T09:39:28.759Z,12.62
2017-12-22T09:40:38.751Z,12.76
2017-12-22T09:41:48.547Z,12.73
2017-12-22T09:42:58.358Z,12.69
2017-12-22T09:44:08.430Z,12.71
2017-12-22T09:45:17.958Z,12.83
2017-12-22T09:46:28.013Z,12.8
2017-12-22T09:47:37.839Z,12.88
2017-12-22T09:48:48.789Z,12.92
2017-12-22T09:49:58.594Z,12.91
2017-12-22T09:51:07.621Z,12.92
2017-12-22T09:52:17.677Z,12.94
2017-12-22T09:53:27.214Z,12.86
2017-12-22T09:54:37.286Z,12.91
2017-12-22T09:55:47.332Z,12.96
2017-12-22T09:56:56.875Z,12.95
2017-12-22T09:58:07.974Z,12.96
2017-12-22T09:59:17.786Z,13.03
2017-12-22T10:00:27.836Z,13.14
2017-12-22T10:01:37.631Z,13.19
2017-12-22T10:02:46.927Z,13.24
2017-12-22T10:03:56.996Z,13.32
2017-12-22T10:05:07.060Z,13.39
2017-12-22T10:06:17.128Z,13.47
2017-12-22T10:07:26.940Z,13.44
2017-12-22T10:08:36.988Z,13.48
2017-12-22T10:09:46.831Z,13.55
2017-12-22T10:10:56.902Z,13.54
2017-12-22T10:12:06.705Z,13.57
2017-12-22T10:13:16.769Z,13.6
2017-12-22T10:14:26.564Z,13.6
2017-12-22T10:15:36.668Z,13.63
2017-12-22T10:16:46.727Z,13.7
2017-12-22T10:17:56.590Z,13.79
2017-12-22T10:19:06.126Z,13.78
2017-12-22T10:20:16.208Z,13.83
2017-12-22T10:21:26.354Z,13.84
2017-12-22T10:22:35.887Z,13.84
2017-12-22T10:23:45.690Z,13.93
2017-12-22T10:24:55.230Z,13.84
2017-12-22T10:26:05.032Z,13.9
2017-12-22T10:27:15.084Z,13.95
2017-12-22T10:28:24.877Z,13.95
2017-12-22T10:29:34.727Z,14.01
2017-12-22T10:30:44.527Z,13.94
2017-12-22T10:31:54.572Z,14.01
2017-12-22T10:33:04.406Z,14.06
2017-12-22T10:34:13.960Z,14.01
2017-12-22T10:35:24.036Z,14.02
2017-12-22T10:36:34.098Z,14.01
2017-12-22T10:37:44.220Z,14.05
2017-12-22T10:38:54.327Z,14.08
2017-12-22T10:40:04.389Z,14.11
2017-12-22T10:41:14.533Z,14.13
2017-12-22T10:42:24.599Z,14.15
2017-12-22T10:43:34.653Z,14.24
2017-12-22T10:44:44.559Z,14.24
2017-12-22T10:45:54.637Z,14.28
2017-12-22T10:47:04.881Z,14.39
2017-12-22T10:48:14.938Z,14.42
2017-12-22T10:49:24.751Z,14.52
2017-12-22T10:50:34.804Z,14.46
2017-12-22T10:51:44.880Z,14.52
2017-12-22T10:52:54.942Z,14.46
2017-12-22T10:54:04.989Z,14.52
2017-12-22T10:55:15.057Z,14.52
2017-12-22T10:56:24.914Z,14.53
2017-12-22T10:57:34.443Z,14.6
2017-12-22T10:58:44.502Z,14.6
2017-12-22T10:59:54.601Z,14.67
2017-12-22T11:01:04.400Z,14.57
2017-12-22T11:02:14.519Z,14.59
2017-12-22T11:03:24.354Z,14.59
2017-12-22T11:04:34.135Z,14.59
2017-12-22T11:05:43.944Z,14.59
2017-12-22T11:06:53.482Z,14.69
2017-12-22T11:08:03.631Z,14.64
2017-12-22T11:09:13.697Z,14.69
2017-12-22T11:10:23.799Z,14.7
2017-12-22T11:11:34.042Z,14.75
2017-12-22T11:12:44.108Z,14.82
2017-12-22T11:13:53.646Z,14.82
2017-12-22T11:15:03.500Z,14.8
2017-12-22T11:16:13.555Z,14.8
2017-12-22T11:17:23.372Z,14.77
2017-12-22T11:18:33.440Z,14.71
2017-12-22T11:19:43.541Z,14.66
2017-12-22T11:20:53.330Z,14.66
2017-12-22T11:22:03.977Z,14.7
2017-12-22T11:23:13.532Z,14.61
2017-12-22T11:24:23.613Z,14.49
2017-12-22T11:25:33.198Z,14.57
2017-12-22T11:26:42.992Z,14.48
2017-12-22T11:27:53.053Z,14.45
2017-12-22T11:29:02.880Z,14.48
2017-12-22T11:30:12.954Z,14.48
2017-12-22T11:31:23.070Z,14.46
2017-12-22T11:32:32.589Z,14.44
2017-12-22T11:33:42.690Z,14.44
2017-12-22T11:34:53.040Z,14.38
2017-12-22T11:36:03.084Z,14.42
2017-12-22T11:37:12.345Z,14.44
2017-12-22T11:38:22.397Z,14.51
2017-12-22T11:39:32.206Z,14.44
2017-12-22T11:40:42.277Z,14.46
2017-12-22T11:41:52.090Z,14.38
2017-12-22T11:43:02.218Z,14.38
2017-12-22T11:44:12.288Z,14.31
2017-12-22T11:45:22.364Z,14.21
2017-12-22T11:46:32.172Z,14.19
2017-12-22T11:47:41.983Z,14.09
2017-12-22T11:48:52.100Z,14.05
2017-12-22T11:50:02.161Z,14.03
2017-12-22T11:51:12.211Z,13.88
2017-12-22T11:52:22.000Z,13.94
2017-12-22T11:53:32.071Z,13.88
2017-12-22T11:54:42.140Z,13.95
2017-12-22T11:55:51.962Z,13.97
2017-12-22T11:57:01.784Z,13.99
2017-12-22T11:58:11.856Z,13.97
2017-12-22T11:59:21.922Z,13.97
2017-12-22T12:00:31.844Z,13.94
2017-12-22T12:01:41.657Z,13.91
2017-12-22T12:02:51.722Z,13.94
2017-12-22T12:04:01.877Z,13.93
2017-12-22T12:05:11.997Z,13.87
2017-12-22T12:06:22.049Z,13.93
2017-12-22T12:07:31.576Z,13.88
2017-12-22T12:08:41.380Z,13.87
2017-12-22T12:09:51.459Z,13.75
2017-12-22T12:11:01.532Z,13.78
2017-12-22T12:12:11.408Z,13.7
2017-12-22T12:13:21.215Z,13.72
2017-12-22T12:14:31.283Z,13.79
2017-12-22T12:15:40.875Z,13.84
2017-12-22T12:16:50.952Z,13.87
2017-12-22T12:18:01.076Z,13.9
2017-12-22T12:19:10.627Z,13.84
2017-12-22T12:20:20.443Z,13.91
2017-12-22T12:21:29.978Z,13.91
2017-12-22T12:22:39.807Z,13.91
2017-12-22T12:23:49.921Z,13.78
2017-12-22T12:24:59.736Z,13.87
2017-12-22T12:26:09.804Z,13.73
2017-12-22T12:27:19.619Z,13.72
2017-12-22T12:28:29.699Z,13.7
2017-12-22T12:29:39.761Z,13.63
2017-12-22T12:30:49.810Z,13.75
2017-12-22T12:31:59.606Z,13.69
2017-12-22T12:33:09.404Z,13.58
2017-12-22T12:34:19.443Z,13.7
2017-12-22T12:35:29.245Z,13.62
2017-12-22T12:36:39.326Z,13.66
2017-12-22T12:37:49.134Z,13.62
2017-12-22T12:39:00.262Z,13.63
2017-12-22T12:40:10.329Z,13.5
2017-12-22T12:41:20.147Z,13.62
2017-12-22T12:42:30.232Z,13.57
2017-12-22T12:43:39.814Z,13.62
2017-12-22T12:44:49.628Z,13.6
2017-12-22T12:46:02.453Z,13.58
2017-12-22T12:47:13.317Z,13.58
2017-12-22T12:48:23.388Z,13.68
2017-12-22T12:49:37.179Z,13.79
2017-12-22T12:50:51.820Z,13.91
2017-12-22T12:52:08.410Z,13.95
2017-12-22T12:53:22.133Z,14.03
2017-12-22T12:54:34.377Z,14.11
2017-12-22T12:55:44.359Z,14.26
2017-12-22T12:56:54.461Z,14.33
2017-12-22T12:58:04.347Z,14.39
2017-12-22T12:59:13.887Z,14.45
2017-12-22T13:00:23.968Z,14.48
2017-12-22T13:01:33.762Z,14.63
2017-12-22T13:02:43.579Z,14.56
2017-12-22T13:03:53.691Z,14.69
2017-12-22T13:05:03.486Z,14.6
2017-12-22T13:06:13.286Z,14.63
2017-12-22T13:07:23.354Z,14.52
2017-12-22T13:08:33.411Z,14.49
2017-12-22T13:09:43.522Z,14.49
2017-12-22T13:10:53.599Z,14.52
2017-12-22T13:12:03.656Z,14.44
2017-12-22T13:13:13.737Z,14.36
2017-12-22T13:14:23.796Z,14.51
2017-12-22T13:15:33.891Z,14.51
2017-12-22T13:16:43.952Z,14.57
2017-12-22T13:17:54.016Z,14.59
2017-12-22T13:19:03.811Z,14.57
2017-12-22T13:20:13.625Z,14.64
2017-12-22T13:21:23.676Z,14.71
2017-12-22T13:22:33.483Z,14.67
2017-12-22T13:23:43.545Z,14.66
2017-12-22T13:24:53.351Z,14.67
2017-12-22T13:26:02.905Z,14.56
2017-12-22T13:27:13.037Z,14.27
2017-12-22T13:28:23.116Z,14.2
2017-12-22T13:29:33.190Z,14.16
2017-12-22T13:30:42.459Z,13.99
2017-12-22T13:31:52.558Z,13.84
2017-12-22T13:33:02.427Z,13.7
2017-12-22T13:34:12.219Z,13.62
2017-12-22T13:35:22.302Z,13.6
2017-12-22T13:36:32.753Z,13.42
2017-12-22T13:37:42.840Z,13.31
2017-12-22T13:38:52.691Z,13.14
2017-12-22T13:40:02.590Z,13.13
2017-12-22T13:41:12.661Z,13.02
2017-12-22T13:42:22.187Z,12.88
2017-12-22T13:43:32.251Z,12.89
2017-12-22T13:44:42.114Z,12.81
2017-12-22T13:45:51.676Z,12.83
2017-12-22T13:47:01.482Z,12.83
2017-12-22T13:48:11.286Z,12.73
2017-12-22T13:49:21.344Z,12.7
2017-12-22T13:50:31.441Z,12.58
2017-12-22T13:51:41.510Z,12.52
2017-12-22T13:52:51.560Z,12.51
2017-12-22T13:54:01.090Z,12.48
2017-12-22T13:55:10.905Z,12.41
2017-12-22T13:56:20.975Z,12.36
2017-12-22T13:57:31.021Z,12.28
2017-12-22T13:58:40.565Z,12.37
2017-12-22T13:59:50.902Z,12.23
2017-12-22T14:01:00.438Z,12.22
2017-12-22T14:02:10.300Z,12.23
2017-12-22T14:03:20.369Z,12.2
2017-12-22T14:04:30.426Z,12.25
2017-12-22T14:05:40.213Z,12.26
2017-12-22T14:06:50.016Z,12.2
2017-12-22T14:08:00.129Z,12.15
2017-12-22T14:09:10.886Z,12.08
2017-12-22T14:10:20.693Z,12.08
2017-12-22T14:11:30.774Z,12.08
2017-12-22T14:12:40.837Z,12.15
2017-12-22T14:13:50.391Z,12.08
2017-12-22T14:15:00.468Z,12.08
2017-12-22T14:16:10.525Z,12.07
2017-12-22T14:17:20.600Z,12
2017-12-22T14:18:30.663Z,11.95
2017-12-22T14:19:40.456Z,11.89
2017-12-22T14:20:50.302Z,11.85
2017-12-22T14:21:59.829Z,11.81
2017-12-22T14:23:09.894Z,11.81
2017-12-22T14:24:19.696Z,11.75
2017-12-22T14:25:29.559Z,11.68
2017-12-22T14:26:39.090Z,11.66
2017-12-22T14:27:48.933Z,11.66
2017-12-22T14:28:58.735Z,11.57
2017-12-22T14:30:08.286Z,11.51
2017-12-22T14:31:18.416Z,11.51
2017-12-22T14:32:28.512Z,11.48
2017-12-22T14:33:38.311Z,11.42
2017-12-22T14:34:48.115Z,11.41
2017-12-22T14:35:58.994Z,11.42
2017-12-22T14:37:09.051Z,11.35
2017-12-22T14:38:19.105Z,11.38
2017-12-22T14:39:28.898Z,11.27
2017-12-22T14:40:38.971Z,11.34
2017-12-22T14:41:48.782Z,11.3
2017-12-22T14:42:58.876Z,11.28
2017-12-22T14:44:08.943Z,11.18
2017-12-22T14:45:18.474Z,11.33
2017-12-22T14:46:28.616Z,11.24
2017-12-22T14:47:38.171Z,11.3
2017-12-22T14:48:48.530Z,11.24
2017-12-22T14:49:58.073Z,11.23
2017-12-22T14:51:07.877Z,11.18
2017-12-22T14:52:17.941Z,11.18
2017-12-22T14:53:27.471Z,11.16
2017-12-22T14:54:37.538Z,11.16
2017-12-22T14:55:47.589Z,11.09
2017-12-22T14:56:57.706Z,11.15
2017-12-22T14:58:07.519Z,11.12
2017-12-22T14:59:17.590Z,11.18
2017-12-22T15:00:27.704Z,11.13
2017-12-22T15:01:37.777Z,11.16
2017-12-22T15:02:47.854Z,11.09
2017-12-22T15:03:57.932Z,11.1
2017-12-22T15:05:08.009Z,11.05
2017-12-22T15:06:18.061Z,11.09
2017-12-22T15:07:28.173Z,10.94
2017-12-22T15:08:38.229Z,10.94
2017-12-22T15:09:48.024Z,11.02
2017-12-22T15:10:58.112Z,11.03
2017-12-22T15:12:07.929Z,10.98
2017-12-22T15:13:17.447Z,10.95
2017-12-22T15:14:26.992Z,10.98
2017-12-22T15:15:36.787Z,10.97
2017-12-22T15:16:46.861Z,11.06
2017-12-22T15:17:56.723Z,10.98
2017-12-22T15:19:07.664Z,11
2017-12-22T15:20:17.736Z,11.02
2017-12-22T15:21:27.281Z,10.94
2017-12-22T15:22:37.335Z,10.97
2017-12-22T15:23:46.927Z,10.94
2017-12-22T15:24:56.756Z,10.87
2017-12-22T15:26:06.830Z,10.87
2017-12-22T15:27:16.638Z,10.85
2017-12-22T15:28:25.894Z,10.85
2017-12-22T15:29:35.475Z,10.77
2017-12-22T15:30:45.281Z,10.63
2017-12-22T15:31:55.068Z,10.69
2017-12-22T15:33:05.138Z,10.63
2017-12-22T15:34:15.222Z,10.57
2017-12-22T15:35:25.350Z,10.57
2017-12-22T15:36:35.157Z,10.59
2017-12-22T15:37:45.225Z,10.61
2017-12-22T15:38:55.559Z,10.73
2017-12-22T15:40:05.644Z,10.67
2017-12-22T15:41:15.711Z,10.61
2017-12-22T15:42:25.237Z,10.72
2017-12-22T15:43:35.315Z,10.69
2017-12-22T15:44:45.375Z,10.75
2017-12-22T15:45:54.907Z,10.73
2017-12-22T15:47:05.020Z,10.63